createdAt,value
2018-09-26T00:00:40.386Z,95.60
2018-09-26T00:03:14.285Z,95.50
2018-09-26T00:05:42.900Z,95.80
2018-09-26T00:08:11.501Z,95.80
2018-09-26T00:10:40.070Z,95.70
2018-09-26T00:13:08.703Z,95.30
2018-09-26T00:15:37.361Z,95.70
2018-09-26T00:18:06.014Z,95.70
2018-09-26T00:20:34.588Z,95.70
2018-09-26T00:23:03.220Z,95.80
2018-09-26T00:25:31.747Z,95.60
2018-09-26T00:28:00.302Z,95.70
2018-09-26T00:30:28.849Z,95.60
2018-09-26T00:32:57.413Z,95.50
2018-09-26T00:35:26.018Z,95.60
2018-09-26T00:37:54.561Z,95.70
2018-09-26T00:40:23.120Z,95.80
2018-09-26T00:42:51.711Z,96.20
2018-09-26T00:45:20.312Z,96.50
2018-09-26T00:47:48.886Z,96.50
2018-09-26T00:50:17.439Z,96.50
2018-09-26T00:52:46.014Z,96.40
2018-09-26T00:55:14.578Z,96.40
2018-09-26T00:57:43.132Z,96.00
2018-09-26T01:00:11.684Z,95.80
2018-09-26T01:02:40.219Z,95.80
2018-09-26T01:05:08.813Z,95.90
2018-09-26T01:07:37.345Z,96.10
2018-09-26T01:10:13.909Z,96.00
2018-09-26T01:12:42.461Z,96.00
2018-09-26T01:15:11.035Z,95.80
2018-09-26T01:17:39.576Z,95.60
2018-09-26T01:20:08.725Z,95.50
2018-09-26T01:22:37.258Z,95.90
2018-09-26T01:25:06.081Z,95.80
2018-09-26T01:27:35.282Z,96.30
2018-09-26T01:30:05.743Z,96.10
2018-09-26T01:32:34.378Z,96.00
2018-09-26T01:35:03.307Z,96.10
2018-09-26T01:37:31.869Z,96.40
2018-09-26T01:40:00.710Z,96.70
2018-09-26T01:42:29.327Z,96.50
2018-09-26T01:44:57.960Z,96.50
2018-09-26T01:47:26.554Z,96.30
2018-09-26T01:49:55.191Z,96.60
2018-09-26T01:52:23.808Z,96.80
2018-09-26T01:54:52.369Z,96.50
2018-09-26T01:57:20.931Z,96.60
2018-09-26T01:59:49.507Z,96.60
2018-09-26T02:02:18.135Z,96.30
2018-09-26T02:04:47.364Z,96.40
2018-09-26T02:07:15.999Z,96.70
2018-09-26T02:09:44.707Z,96.80
2018-09-26T02:12:13.299Z,96.50
2018-09-26T02:14:41.897Z,96.30
2018-09-26T02:17:10.451Z,96.70
2018-09-26T02:19:39.056Z,96.50
2018-09-26T02:22:07.628Z,96.70
2018-09-26T02:24:36.183Z,96.70
2018-09-26T02:27:04.781Z,96.40
2018-09-26T02:29:33.348Z,96.80
2018-09-26T02:32:01.914Z,97.00
2018-09-26T02:34:45.125Z,96.90
2018-09-26T02:37:13.712Z,96.60
2018-09-26T02:39:42.289Z,96.40
2018-09-26T02:42:10.852Z,96.70
2018-09-26T02:44:39.443Z,97.10
2018-09-26T02:47:08.097Z,96.80
2018-09-26T02:49:36.676Z,96.80
2018-09-26T02:55:04.468Z,96.80
2018-09-26T02:57:43.317Z,96.60
2018-09-26T03:00:11.952Z,96.90
2018-09-26T03:02:40.484Z,97.10
2018-09-26T03:05:09.043Z,96.70
2018-09-26T03:07:37.602Z,96.70
2018-09-26T03:10:06.214Z,96.90
2018-09-26T03:12:37.620Z,96.70
2018-09-26T03:15:06.270Z,96.90
2018-09-26T03:17:34.865Z,97.50
2018-09-26T03:20:03.503Z,97.50
2018-09-26T03:22:32.049Z,97.30
2018-09-26T03:25:00.596Z,97.20
2018-09-26T03:27:29.150Z,96.80
2018-09-26T03:29:57.742Z,96.90
2018-09-26T03:32:26.341Z,96.80
2018-09-26T03:34:56.450Z,96.60
2018-09-26T03:37:25.019Z,96.30
2018-09-26T03:39:53.579Z,96.20
2018-09-26T03:42:22.144Z,96.40
2018-09-26T03:44:50.698Z,96.50
2018-09-26T03:47:19.264Z,96.50
2018-09-26T03:49:47.801Z,96.70
2018-09-26T03:52:16.380Z,96.70
2018-09-26T03:54:44.939Z,97.20
2018-09-26T03:57:13.523Z,97.10
2018-09-26T03:59:42.092Z,96.80
2018-09-26T04:02:10.660Z,97.00
2018-09-26T04:04:39.296Z,97.20
2018-09-26T04:07:07.938Z,97.60
2018-09-26T04:09:37.340Z,97.30
2018-09-26T04:12:05.984Z,97.20
2018-09-26T04:14:34.578Z,97.30
2018-09-26T04:17:03.150Z,97.60
2018-09-26T04:19:31.720Z,97.30
2018-09-26T04:22:00.321Z,97.30
2018-09-26T04:24:28.859Z,97.20
2018-09-26T04:26:57.599Z,97.30
2018-09-26T04:29:26.049Z,97.60
2018-09-26T04:31:54.645Z,97.50
2018-09-26T04:34:23.211Z,97.10
2018-09-26T04:36:51.770Z,97.20
2018-09-26T04:39:20.345Z,97.10
2018-09-26T04:41:48.921Z,97.50
2018-09-26T04:44:17.507Z,97.20
2018-09-26T04:46:46.017Z,97.00
2018-09-26T04:49:14.561Z,97.40
2018-09-26T04:51:43.111Z,97.50
2018-09-26T04:54:11.669Z,97.20
2018-09-26T04:56:40.211Z,97.00
2018-09-26T04:59:08.791Z,96.80
2018-09-26T05:01:37.356Z,96.90
2018-09-26T05:04:05.928Z,97.10
2018-09-26T05:06:34.473Z,97.30
2018-09-26T05:09:03.183Z,97.00
2018-09-26T05:11:31.718Z,97.20
2018-09-26T05:14:00.271Z,97.20
2018-09-26T05:16:28.824Z,97.00
2018-09-26T05:18:57.368Z,97.10
2018-09-26T05:21:25.939Z,97.20
2018-09-26T05:23:54.480Z,97.00
2018-09-26T05:26:23.024Z,96.90
2018-09-26T05:28:51.591Z,97.50
2018-09-26T05:31:20.205Z,97.40
2018-09-26T05:33:48.782Z,97.80
2018-09-26T05:36:17.324Z,97.90
2018-09-26T05:38:45.902Z,97.80
2018-09-26T05:41:14.454Z,97.90
2018-09-26T05:43:43.027Z,97.90
2018-09-26T05:46:11.592Z,97.70
2018-09-26T05:48:40.177Z,97.60
2018-09-26T05:51:08.732Z,97.20
2018-09-26T05:53:37.397Z,95.60
2018-09-26T05:56:05.937Z,95.80
2018-09-26T05:58:34.505Z,95.10
2018-09-26T06:01:03.124Z,95.40
2018-09-26T06:03:31.679Z,94.80
2018-09-26T06:06:00.263Z,94.20
2018-09-26T06:08:28.818Z,93.40
2018-09-26T06:10:57.372Z,92.70
2018-09-26T06:13:25.934Z,92.40
2018-09-26T06:15:54.521Z,91.70
2018-09-26T06:18:23.122Z,90.20
2018-09-26T06:20:51.725Z,90.30
2018-09-26T06:23:20.300Z,89.60
2018-09-26T06:25:48.889Z,89.20
2018-09-26T06:28:17.464Z,89.10
2018-09-26T06:30:46.030Z,86.30
2018-09-26T06:33:14.585Z,86.80
2018-09-26T06:35:43.135Z,85.70
2018-09-26T06:38:11.705Z,85.20
2018-09-26T06:40:40.304Z,83.10
2018-09-26T06:43:08.965Z,83.40
2018-09-26T06:45:37.599Z,82.70
2018-09-26T06:48:06.312Z,82.10
2018-09-26T06:50:34.881Z,79.60
2018-09-26T06:53:03.527Z,77.50
2018-09-26T06:55:32.153Z,80.10
2018-09-26T06:58:00.700Z,77.80
2018-09-26T07:00:29.269Z,76.50
2018-09-26T07:02:57.839Z,77.20
2018-09-26T07:05:26.386Z,76.50
2018-09-26T07:07:54.946Z,74.50
2018-09-26T07:10:23.567Z,74.10
2018-09-26T07:12:52.143Z,74.50
2018-09-26T07:15:20.698Z,74.20
2018-09-26T07:17:49.222Z,73.60
2018-09-26T07:20:17.745Z,73.30
2018-09-26T07:22:46.287Z,73.40
2018-09-26T07:25:14.827Z,74.30
2018-09-26T07:27:44.501Z,71.50
2018-09-26T07:30:13.124Z,70.80
2018-09-26T07:32:41.758Z,68.40
2018-09-26T07:35:10.317Z,67.30
2018-09-26T07:37:38.865Z,66.50
2018-09-26T07:40:07.520Z,67.20
2018-09-26T07:42:36.069Z,65.50
2018-09-26T07:45:04.949Z,66.30
2018-09-26T07:47:33.503Z,65.20
2018-09-26T07:50:02.070Z,65.20
2018-09-26T07:52:30.648Z,65.40
2018-09-26T07:54:59.241Z,64.50
2018-09-26T07:57:27.784Z,62.90
2018-09-26T07:59:56.519Z,64.00
2018-09-26T08:02:25.071Z,62.10
2018-09-26T08:04:53.659Z,61.30
2018-09-26T08:07:22.222Z,62.70
2018-09-26T08:09:50.778Z,63.20
2018-09-26T08:12:19.365Z,60.40
2018-09-26T08:14:47.949Z,61.90
2018-09-26T08:17:16.550Z,64.30
2018-09-26T08:19:45.173Z,64.80
2018-09-26T08:22:13.757Z,63.30
2018-09-26T08:24:42.341Z,64.90
2018-09-26T08:27:10.940Z,64.60
2018-09-26T08:29:39.687Z,65.20
2018-09-26T08:32:08.488Z,63.50
2018-09-26T08:34:37.063Z,64.30
2018-09-26T08:37:05.663Z,65.10
2018-09-26T08:39:34.213Z,63.80
2018-09-26T08:42:02.789Z,64.00
2018-09-26T08:44:31.352Z,63.80
2018-09-26T08:46:59.937Z,64.30
2018-09-26T08:49:28.522Z,63.00
2018-09-26T08:51:57.078Z,63.10
2018-09-26T08:54:25.628Z,63.40
2018-09-26T08:56:54.211Z,62.20
2018-09-26T08:59:22.765Z,62.20
2018-09-26T09:01:51.410Z,62.70
2018-09-26T09:04:19.953Z,62.10
2018-09-26T09:06:48.508Z,61.40
2018-09-26T09:09:17.063Z,62.60
2018-09-26T09:11:45.748Z,63.30
2018-09-26T09:14:14.295Z,62.40
2018-09-26T09:16:42.836Z,61.60
2018-09-26T09:19:11.408Z,59.90
2018-09-26T09:21:40.044Z,59.40
2018-09-26T09:24:08.597Z,56.50
2018-09-26T09:26:37.124Z,57.10
2018-09-26T09:29:05.738Z,56.90
2018-09-26T09:31:34.301Z,57.90
2018-09-26T09:34:02.856Z,55.50
2018-09-26T09:36:31.474Z,56.50
2018-09-26T09:39:00.051Z,54.70
2018-09-26T09:41:28.614Z,54.60
2018-09-26T09:43:57.211Z,54.30
2018-09-26T09:46:25.828Z,52.70
2018-09-26T09:48:54.407Z,53.40
2018-09-26T09:51:22.993Z,52.60
2018-09-26T09:53:51.599Z,52.50
2018-09-26T09:56:20.267Z,51.20
2018-09-26T09:58:48.869Z,51.20
2018-09-26T10:01:22.657Z,50.20
2018-09-26T10:03:51.275Z,49.60
2018-09-26T10:06:19.826Z,49.50
2018-09-26T10:08:48.443Z,48.20
2018-09-26T10:11:16.940Z,48.50
2018-09-26T10:13:45.984Z,51.50
2018-09-26T10:16:14.611Z,50.00
2018-09-26T10:18:43.957Z,48.00
2018-09-26T10:21:12.669Z,47.60
2018-09-26T10:23:41.236Z,48.90
2018-09-26T10:26:13.642Z,50.80
2018-09-26T10:28:42.230Z,47.90
2018-09-26T10:31:10.845Z,48.50
2018-09-26T10:33:39.453Z,48.40
2018-09-26T10:36:08.033Z,48.80
2018-09-26T10:38:36.677Z,49.10
2018-09-26T10:41:05.291Z,48.00
2018-09-26T10:43:33.949Z,47.80
2018-09-26T10:46:02.609Z,49.00
2018-09-26T10:48:31.251Z,48.30
2018-09-26T10:50:59.913Z,48.90
2018-09-26T10:53:28.492Z,48.50
2018-09-26T10:55:57.066Z,49.00
2018-09-26T10:58:25.636Z,48.20
2018-09-26T11:00:54.215Z,48.30
2018-09-26T11:03:22.830Z,46.90
2018-09-26T11:05:51.409Z,46.40
2018-09-26T11:08:20.033Z,48.70
2018-09-26T11:10:48.581Z,47.60
2018-09-26T11:13:17.144Z,46.50
2018-09-26T11:15:45.683Z,46.80
2018-09-26T11:18:14.243Z,46.10
2018-09-26T11:20:42.830Z,46.70
2018-09-26T11:23:12.503Z,45.50
2018-09-26T11:25:41.087Z,46.10
2018-09-26T11:28:09.654Z,46.60
2018-09-26T11:30:38.208Z,45.10
2018-09-26T11:33:06.869Z,46.10
2018-09-26T11:35:35.417Z,46.50
2018-09-26T11:38:03.998Z,47.00
2018-09-26T11:40:32.567Z,47.80
2018-09-26T11:43:01.115Z,48.40
2018-09-26T11:45:29.681Z,49.70
2018-09-26T11:47:58.236Z,49.80
2018-09-26T11:50:26.850Z,48.50
2018-09-26T11:52:55.395Z,48.20
2018-09-26T11:55:23.993Z,47.80
2018-09-26T11:57:52.572Z,49.00
2018-09-26T12:00:21.883Z,48.10
2018-09-26T12:02:50.426Z,46.60
2018-09-26T12:05:18.972Z,47.50
2018-09-26T12:07:48.039Z,47.50
2018-09-26T12:10:16.694Z,46.50
2018-09-26T12:12:45.271Z,44.90
2018-09-26T12:15:13.865Z,43.00
2018-09-26T12:17:42.412Z,43.50
2018-09-26T12:20:12.080Z,43.90
2018-09-26T12:22:40.864Z,45.30
2018-09-26T12:25:09.346Z,44.60
2018-09-26T12:27:37.923Z,46.10
2018-09-26T12:30:07.620Z,45.80
2018-09-26T12:32:36.271Z,45.40
2018-09-26T12:35:04.943Z,44.60
2018-09-26T12:37:33.502Z,44.20
2018-09-26T12:40:04.061Z,45.70
2018-09-26T12:42:32.671Z,45.30
2018-09-26T12:45:01.203Z,46.60
2018-09-26T12:47:29.810Z,46.20
2018-09-26T12:49:58.357Z,45.00
2018-09-26T12:52:26.936Z,45.50
2018-09-26T12:54:55.481Z,44.00
2018-09-26T12:57:24.058Z,44.60
2018-09-26T12:59:52.605Z,43.00
2018-09-26T13:02:21.269Z,42.30
2018-09-26T13:04:49.809Z,44.60
2018-09-26T13:07:18.385Z,42.60
2018-09-26T13:09:47.137Z,43.00
2018-09-26T13:12:15.727Z,43.60
2018-09-26T13:14:45.380Z,43.70
2018-09-26T13:17:14.041Z,43.60
2018-09-26T13:19:42.644Z,43.60
2018-09-26T13:22:11.231Z,42.00
2018-09-26T13:24:40.005Z,43.60
2018-09-26T13:27:08.581Z,43.00
2018-09-26T13:29:37.191Z,44.20
2018-09-26T13:32:05.883Z,44.60
2018-09-26T13:34:34.453Z,44.80
2018-09-26T13:37:03.020Z,44.00
2018-09-26T13:39:31.721Z,45.90
2018-09-26T13:42:00.267Z,45.40
2018-09-26T13:44:28.814Z,44.50
2018-09-26T13:46:57.360Z,45.00
2018-09-26T13:49:25.909Z,46.50
2018-09-26T13:51:54.478Z,45.70
2018-09-26T13:54:23.032Z,44.70
2018-09-26T13:56:51.603Z,46.20
2018-09-26T13:59:20.157Z,47.30
2018-09-26T14:01:48.687Z,45.80
2018-09-26T14:04:17.332Z,44.90
2018-09-26T14:06:45.971Z,46.60
2018-09-26T14:09:14.528Z,45.10
2018-09-26T14:11:43.100Z,45.90
2018-09-26T14:14:11.690Z,44.60
2018-09-26T14:16:40.271Z,44.30
2018-09-26T14:19:08.835Z,44.20
2018-09-26T14:21:38.645Z,45.60
2018-09-26T14:24:07.646Z,45.30
2018-09-26T14:26:36.840Z,45.90
2018-09-26T14:29:05.449Z,47.20
2018-09-26T14:31:34.029Z,47.10
2018-09-26T14:34:04.014Z,46.10
2018-09-26T14:36:32.566Z,46.70
2018-09-26T14:39:02.250Z,47.60
2018-09-26T14:41:30.752Z,48.90
2018-09-26T14:43:59.338Z,48.40
2018-09-26T14:46:27.895Z,49.60
2018-09-26T14:48:56.738Z,50.00
2018-09-26T14:51:25.330Z,51.10
2018-09-26T14:53:54.036Z,50.50
2018-09-26T14:56:22.761Z,51.20
2018-09-26T14:58:51.779Z,51.20
2018-09-26T15:01:20.412Z,52.20
2018-09-26T15:03:50.690Z,51.70
2018-09-26T15:06:19.351Z,51.90
2018-09-26T15:08:48.041Z,52.10
2018-09-26T15:11:16.639Z,52.50
2018-09-26T15:13:45.232Z,52.30
2018-09-26T15:16:13.878Z,53.00
2018-09-26T15:18:42.421Z,53.40
2018-09-26T15:21:11.010Z,54.20
2018-09-26T15:23:39.597Z,53.00
2018-09-26T15:26:08.329Z,53.70
2018-09-26T15:28:36.924Z,53.50
2018-09-26T15:31:05.461Z,53.00
2018-09-26T15:33:34.121Z,53.40
2018-09-26T15:36:02.750Z,53.80
2018-09-26T15:38:31.323Z,53.40
2018-09-26T15:40:59.883Z,53.70
2018-09-26T15:43:28.489Z,53.90
2018-09-26T15:45:57.147Z,53.90
2018-09-26T15:48:28.895Z,54.20
2018-09-26T15:50:59.909Z,54.00
2018-09-26T15:53:28.533Z,54.80
2018-09-26T15:55:57.073Z,54.90
2018-09-26T15:58:25.766Z,54.70
2018-09-26T16:00:54.332Z,55.50
2018-09-26T16:03:22.905Z,55.40
2018-09-26T16:05:51.522Z,56.40
2018-09-26T16:08:20.208Z,56.00
2018-09-26T16:10:49.789Z,56.60
2018-09-26T16:13:18.508Z,58.20
2018-09-26T16:15:47.105Z,57.60
2018-09-26T16:18:15.656Z,58.20
2018-09-26T16:20:44.187Z,57.40
2018-09-26T16:23:12.740Z,57.90
2018-09-26T16:25:41.323Z,57.20
2018-09-26T16:28:09.934Z,57.00
2018-09-26T16:30:38.497Z,57.30
2018-09-26T16:33:07.044Z,57.20
2018-09-26T16:35:35.579Z,57.20
2018-09-26T16:38:04.156Z,57.70
2018-09-26T16:40:32.725Z,58.00
2018-09-26T16:43:01.294Z,57.30
2018-09-26T16:45:29.845Z,58.30
2018-09-26T16:47:58.444Z,57.80
2018-09-26T16:50:27.076Z,58.30
2018-09-26T16:52:55.600Z,58.00
2018-09-26T16:55:24.151Z,57.90
2018-09-26T16:57:52.715Z,57.50
2018-09-26T17:00:21.359Z,58.50
2018-09-26T17:02:49.873Z,59.30
2018-09-26T17:05:18.408Z,59.20
2018-09-26T17:07:46.992Z,60.20
2018-09-26T17:10:15.636Z,59.20
2018-09-26T17:12:44.394Z,60.00
2018-09-26T17:15:12.929Z,59.40
2018-09-26T17:17:41.495Z,60.10
2018-09-26T17:20:10.090Z,60.70
2018-09-26T17:22:38.950Z,60.70
2018-09-26T17:25:07.529Z,59.80
2018-09-26T17:27:36.075Z,59.60
2018-09-26T17:30:04.868Z,59.90
2018-09-26T17:32:33.431Z,59.70
2018-09-26T17:35:01.990Z,59.20
2018-09-26T17:37:30.574Z,59.10
2018-09-26T17:39:59.196Z,58.70
2018-09-26T17:42:27.846Z,59.80
2018-09-26T17:44:56.344Z,60.20
2018-09-26T17:47:24.907Z,59.60
2018-09-26T17:49:53.433Z,59.70
2018-09-26T17:52:22.022Z,59.70
2018-09-26T17:54:50.608Z,58.90
2018-09-26T17:57:19.160Z,59.30
2018-09-26T17:59:47.716Z,58.70
2018-09-26T18:02:16.367Z,58.50
2018-09-26T18:04:44.935Z,58.20
2018-09-26T18:07:13.498Z,58.80
2018-09-26T18:09:42.034Z,59.20
2018-09-26T18:12:10.586Z,58.30
2018-09-26T18:14:39.162Z,60.70
2018-09-26T18:17:07.716Z,59.20
2018-09-26T18:19:36.269Z,58.90
2018-09-26T18:22:04.876Z,59.30
2018-09-26T18:24:33.450Z,59.40
2018-09-26T18:27:02.002Z,59.00
2018-09-26T18:29:30.589Z,60.10
2018-09-26T18:31:59.136Z,59.40
2018-09-26T18:34:27.703Z,60.50
2018-09-26T18:36:56.373Z,60.80
2018-09-26T18:39:24.973Z,61.10
2018-09-26T18:41:53.533Z,62.10
2018-09-26T18:44:22.082Z,61.90
2018-09-26T18:46:50.720Z,61.80
2018-09-26T18:49:19.406Z,62.20
2018-09-26T18:51:48.047Z,62.40
2018-09-26T18:54:16.605Z,63.10
2018-09-26T18:56:45.136Z,64.50
2018-09-26T18:59:13.701Z,63.00
2018-09-26T19:01:42.279Z,61.80
2018-09-26T19:04:10.945Z,61.60
2018-09-26T19:06:39.694Z,60.60
2018-09-26T19:09:10.388Z,60.50
2018-09-26T19:11:38.899Z,61.00
2018-09-26T19:14:07.933Z,60.10
2018-09-26T19:16:36.483Z,60.20
2018-09-26T19:19:05.186Z,60.10
2018-09-26T19:21:33.887Z,60.00
2018-09-26T19:24:02.384Z,61.10
2018-09-26T19:26:30.927Z,61.30
2018-09-26T19:28:59.493Z,62.70
2018-09-26T19:31:28.050Z,61.90
2018-09-26T19:33:56.616Z,61.50
2018-09-26T19:36:25.300Z,61.10
2018-09-26T19:38:53.848Z,59.70
2018-09-26T19:41:22.415Z,59.40
2018-09-26T19:43:51.018Z,59.50
2018-09-26T19:46:19.603Z,59.00
2018-09-26T19:48:48.130Z,59.80
2018-09-26T19:51:16.665Z,59.70
2018-09-26T19:53:45.277Z,59.10
2018-09-26T19:56:14.060Z,59.00
2018-09-26T19:58:42.489Z,59.40
2018-09-26T20:01:11.095Z,59.70
2018-09-26T20:03:39.665Z,60.80
2018-09-26T20:06:08.223Z,61.10
2018-09-26T20:08:36.805Z,62.00
2018-09-26T20:11:05.467Z,61.80
2018-09-26T20:13:34.145Z,61.20
2018-09-26T20:16:02.658Z,61.40
2018-09-26T20:18:32.727Z,61.10
2018-09-26T20:21:01.273Z,61.20
2018-09-26T20:23:29.867Z,62.20
2018-09-26T20:25:58.387Z,60.70
2018-09-26T20:28:26.938Z,60.90
2018-09-26T20:30:55.560Z,61.60
2018-09-26T20:33:24.074Z,60.50
2018-09-26T20:35:52.634Z,61.80
2018-09-26T20:38:21.183Z,62.00
2018-09-26T20:40:49.759Z,61.90
2018-09-26T20:43:18.298Z,62.50
2018-09-26T20:45:46.929Z,62.20
2018-09-26T20:48:15.472Z,61.50
2018-09-26T20:50:44.007Z,63.80
2018-09-26T20:53:12.561Z,62.40
2018-09-26T20:55:41.163Z,63.00
2018-09-26T20:58:09.736Z,62.80
2018-09-26T21:00:38.302Z,63.70
2018-09-26T21:03:06.855Z,62.60
2018-09-26T21:05:35.438Z,62.70
2018-09-26T21:08:04.048Z,61.60
2018-09-26T21:10:32.611Z,62.40
2018-09-26T21:13:01.139Z,62.10
2018-09-26T21:15:29.727Z,63.30
2018-09-26T21:17:58.455Z,63.20
2018-09-26T21:20:26.945Z,62.70
2018-09-26T21:22:55.617Z,61.10
2018-09-26T21:25:24.223Z,62.70
2018-09-26T21:27:52.841Z,64.10
2018-09-26T21:30:21.485Z,63.30
2018-09-26T21:32:50.111Z,62.40
2018-09-26T21:35:18.745Z,61.30
2018-09-26T21:37:47.362Z,60.10
2018-09-26T21:40:16.101Z,59.00
2018-09-26T21:42:44.740Z,58.30
2018-09-26T21:45:13.425Z,59.40
2018-09-26T21:47:42.233Z,60.90
2018-09-26T21:50:10.944Z,62.30
2018-09-26T21:52:39.557Z,62.10
2018-09-26T21:55:08.184Z,59.30
2018-09-26T21:57:36.904Z,61.40
2018-09-26T22:00:06.298Z,60.60
2018-09-26T22:02:34.929Z,60.10
2018-09-26T22:05:03.573Z,59.20
2018-09-26T22:07:32.219Z,59.30
2018-09-26T22:10:00.865Z,58.20
2018-09-26T22:12:29.566Z,58.10
2018-09-26T22:14:58.186Z,57.00
2018-09-26T22:17:26.809Z,54.90
2018-09-26T22:19:55.469Z,55.80
2018-09-26T22:22:24.097Z,53.80
2018-09-26T22:24:52.746Z,54.10
2018-09-26T22:27:21.365Z,55.10
2018-09-26T22:29:50.014Z,55.10
2018-09-26T22:32:18.693Z,54.10
2018-09-26T22:34:47.654Z,55.80
2018-09-26T22:37:16.292Z,55.40
2018-09-26T22:39:44.925Z,54.90
2018-09-26T22:42:13.566Z,54.70
2018-09-26T22:44:42.206Z,53.90
2018-09-26T22:47:10.820Z,53.70
2018-09-26T22:49:39.437Z,53.30
2018-09-26T22:52:08.070Z,54.40
2018-09-26T22:54:36.684Z,54.20
2018-09-26T22:57:05.357Z,53.50
2018-09-26T22:59:33.985Z,53.70
2018-09-26T23:02:02.622Z,53.90
2018-09-26T23:04:31.333Z,53.60
2018-09-26T23:06:59.953Z,53.90
2018-09-26T23:09:28.605Z,53.60
2018-09-26T23:11:57.253Z,53.90
2018-09-26T23:14:25.894Z,53.60
2018-09-26T23:16:54.513Z,53.10
2018-09-26T23:19:23.150Z,54.50
2018-09-26T23:21:51.768Z,54.50
2018-09-26T23:24:20.397Z,53.80
2018-09-26T23:26:49.022Z,54.00
2018-09-26T23:29:17.639Z,54.50
2018-09-26T23:31:46.285Z,54.00
2018-09-26T23:34:14.973Z,53.60
2018-09-26T23:36:43.603Z,53.10
2018-09-26T23:39:12.437Z,52.90
2018-09-26T23:41:41.147Z,53.20
2018-09-26T23:44:10.155Z,54.10
2018-09-26T23:46:38.768Z,54.00
2018-09-26T23:49:07.410Z,53.20
2018-09-26T23:51:35.971Z,54.00
2018-09-26T23:54:04.606Z,53.20
2018-09-26T23:56:34.003Z,54.50
2018-09-26T23:59:02.567Z,55.10
